sensor_id;sensor_type;location;lat;lon;timestamp;pressure;altitude;pressure_sealevel;temperature;humidity
48614;BME280;34408;51.426;5.444;2023-04-27T00:01:14;101994.22;;;10.26;48.44
48614;BME280;34408;51.426;5.444;2023-04-27T00:03:42;101987.16;;;10.25;48.31
48614;BME280;34408;51.426;5.444;2023-04-27T00:06:11;101990.06;;;10.24;48.55
48614;BME280;34408;51.426;5.444;2023-04-27T00:08:39;101991.06;;;10.23;48.49
48614;BME280;34408;51.426;5.444;2023-04-27T00:11:07;101995.63;;;10.22;48.48
48614;BME280;34408;51.426;5.444;2023-04-27T00:13:36;101999.31;;;10.21;48.66
48614;BME280;34408;51.426;5.444;2023-04-27T00:16:04;101993.28;;;10.19;48.24
48614;BME280;34408;51.426;5.444;2023-04-27T00:18:32;101990.59;;;10.19;48.25
48614;BME280;34408;51.426;5.444;2023-04-27T00:21:00;101990.78;;;10.18;47.97
48614;BME280;34408;51.426;5.444;2023-04-27T00:23:28;101992.00;;;10.15;48.30
48614;BME280;34408;51.426;5.444;2023-04-27T00:25:56;101998.38;;;10.14;48.40
48614;BME280;34408;51.426;5.444;2023-04-27T00:28:23;101995.06;;;10.12;48.35
48614;BME280;34408;51.426;5.444;2023-04-27T00:30:53;101997.94;;;10.10;48.46
48614;BME280;34408;51.426;5.444;2023-04-27T00:33:20;101997.09;;;10.10;48.40
48614;BME280;34408;51.426;5.444;2023-04-27T00:35:48;102008.03;;;10.08;48.38
48614;BME280;34408;51.426;5.444;2023-04-27T00:38:16;101992.13;;;10.07;48.38
48614;BME280;34408;51.426;5.444;2023-04-27T00:40:44;101995.81;;;10.06;48.45
48614;BME280;34408;51.426;5.444;2023-04-27T00:43:11;101996.00;;;10.04;48.61
48614;BME280;34408;51.426;5.444;2023-04-27T00:45:41;101990.00;;;10.02;48.28
48614;BME280;34408;51.426;5.444;2023-04-27T00:48:11;101992.88;;;10.01;48.65
48614;BME280;34408;51.426;5.444;2023-04-27T00:50:38;101997.41;;;10.00;48.26
48614;BME280;34408;51.426;5.444;2023-04-27T00:53:06;101992.44;;;9.97;48.88
48614;BME280;34408;51.426;5.444;2023-04-27T00:55:35;101999.66;;;9.97;48.54
48614;BME280;34408;51.426;5.444;2023-04-27T00:58:02;101988.06;;;9.96;48.48
48614;BME280;34408;51.426;5.444;2023-04-27T01:00:30;101999.84;;;9.95;48.43
48614;BME280;34408;51.426;5.444;2023-04-27T01:02:58;101997.53;;;9.92;48.42
48614;BME280;34408;51.426;5.444;2023-04-27T01:05:29;101994.00;;;9.92;48.27
48614;BME280;34408;51.426;5.444;2023-04-27T01:07:58;101996.50;;;9.93;48.66
48614;BME280;34408;51.426;5.444;2023-04-27T01:10:25;101995.03;;;9.91;48.30
48614;BME280;34408;51.426;5.444;2023-04-27T01:12:54;101989.66;;;9.91;48.72
48614;BME280;34408;51.426;5.444;2023-04-27T01:15:22;101996.06;;;9.90;48.73
48614;BME280;34408;51.426;5.444;2023-04-27T01:17:56;101993.56;;;9.88;48.77
48614;BME280;34408;51.426;5.444;2023-04-27T01:20:24;101997.44;;;9.86;48.89
48614;BME280;34408;51.426;5.444;2023-04-27T01:22:57;101995.97;;;9.83;48.75
48614;BME280;34408;51.426;5.444;2023-04-27T01:25:27;102002.19;;;9.84;48.42
48614;BME280;34408;51.426;5.444;2023-04-27T01:27:55;101998.66;;;9.83;49.15
48614;BME280;34408;51.426;5.444;2023-04-27T01:30:22;102001.34;;;9.83;48.85
48614;BME280;34408;51.426;5.444;2023-04-27T01:32:50;101997.00;;;9.82;48.97
48614;BME280;34408;51.426;5.444;2023-04-27T01:35:18;101998.03;;;9.81;48.88
48614;BME280;34408;51.426;5.444;2023-04-27T01:37:46;101980.44;;;9.78;48.53
48614;BME280;34408;51.426;5.444;2023-04-27T01:40:14;101991.81;;;9.81;48.47
48614;BME280;34408;51.426;5.444;2023-04-27T01:42:43;101996.34;;;9.80;48.50
48614;BME280;34408;51.426;5.444;2023-04-27T01:45:11;101988.50;;;9.78;48.82
48614;BME280;34408;51.426;5.444;2023-04-27T01:47:39;101994.03;;;9.77;48.43
48614;BME280;34408;51.426;5.444;2023-04-27T01:50:07;101992.38;;;9.76;48.64
48614;BME280;34408;51.426;5.444;2023-04-27T01:52:35;101987.19;;;9.74;49.06
48614;BME280;34408;51.426;5.444;2023-04-27T01:55:03;101987.19;;;9.74;48.59
48614;BME280;34408;51.426;5.444;2023-04-27T01:57:31;101982.66;;;9.75;48.58
48614;BME280;34408;51.426;5.444;2023-04-27T02:00:00;101984.72;;;9.73;48.38
48614;BME280;34408;51.426;5.444;2023-04-27T02:02:28;101983.03;;;9.72;48.73
48614;BME280;34408;51.426;5.444;2023-04-27T02:04:56;101982.03;;;9.73;48.98
48614;BME280;34408;51.426;5.444;2023-04-27T02:07:24;101980.53;;;9.70;48.61
48614;BME280;34408;51.426;5.444;2023-04-27T02:09:52;101979.06;;;9.68;49.21
48614;BME280;34408;51.426;5.444;2023-04-27T02:12:20;101981.94;;;9.66;48.64
48614;BME280;34408;51.426;5.444;2023-04-27T02:14:48;101975.94;;;9.64;48.97
48614;BME280;34408;51.426;5.444;2023-04-27T02:17:17;101977.97;;;9.62;48.98
48614;BME280;34408;51.426;5.444;2023-04-27T02:19:45;101983.34;;;9.62;49.11
48614;BME280;34408;51.426;5.444;2023-04-27T02:22:13;101977.31;;;9.60;48.86
48614;BME280;34408;51.426;5.444;2023-04-27T02:24:41;101974.66;;;9.60;48.68
48614;BME280;34408;51.426;5.444;2023-04-27T02:27:09;101965.94;;;9.58;49.15
48614;BME280;34408;51.426;5.444;2023-04-27T02:29:37;101963.44;;;9.57;49.46
48614;BME280;34408;51.426;5.444;2023-04-27T02:32:05;101962.63;;;9.56;49.19
48614;BME280;34408;51.426;5.444;2023-04-27T02:34:35;101960.94;;;9.55;48.61
48614;BME280;34408;51.426;5.444;2023-04-27T02:37:02;101963.00;;;9.53;49.01
48614;BME280;34408;51.426;5.444;2023-04-27T02:39:30;101965.03;;;9.51;49.02
48614;BME280;34408;51.426;5.444;2023-04-27T02:41:58;101956.16;;;9.51;49.28
48614;BME280;34408;51.426;5.444;2023-04-27T02:44:25;101958.84;;;9.51;48.79
48614;BME280;34408;51.426;5.444;2023-04-27T02:46:53;101965.22;;;9.50;49.20
48614;BME280;34408;51.426;5.444;2023-04-27T02:49:21;101965.41;;;9.48;49.55
48614;BME280;34408;51.426;5.444;2023-04-27T02:51:50;101962.91;;;9.46;49.57
48614;BME280;34408;51.426;5.444;2023-04-27T02:54:18;101967.25;;;9.48;49.09
48614;BME280;34408;51.426;5.444;2023-04-27T02:56:45;101976.31;;;9.46;49.54
48614;BME280;34408;51.426;5.444;2023-04-27T02:59:13;101972.16;;;9.44;49.14
48614;BME280;34408;51.426;5.444;2023-04-27T03:01:41;101966.16;;;9.42;49.15
48614;BME280;34408;51.426;5.444;2023-04-27T03:04:09;101970.69;;;9.41;48.97
48614;BME280;34408;51.426;5.444;2023-04-27T03:06:39;101965.50;;;9.40;49.68
48614;BME280;34408;51.426;5.444;2023-04-27T03:09:09;101958.66;;;9.37;49.69
48614;BME280;34408;51.426;5.444;2023-04-27T03:11:37;101959.50;;;9.38;49.03
48614;BME280;34408;51.426;5.444;2023-04-27T03:14:04;101948.41;;;9.26;49.04
48614;BME280;34408;51.426;5.444;2023-04-27T03:16:32;101958.19;;;9.34;49.53
48614;BME280;34408;51.426;5.444;2023-04-27T03:19:00;101956.34;;;9.34;49.62
48614;BME280;34408;51.426;5.444;2023-04-27T03:21:29;101955.72;;;9.32;49.03
48614;BME280;34408;51.426;5.444;2023-04-27T03:23:57;101946.09;;;9.23;49.71
48614;BME280;34408;51.426;5.444;2023-04-27T03:26:26;101957.56;;;9.32;49.08
48614;BME280;34408;51.426;5.444;2023-04-27T03:28:54;101966.63;;;9.31;48.92
48614;BME280;34408;51.426;5.444;2023-04-27T03:31:22;101967.44;;;9.31;49.60
48614;BME280;34408;51.426;5.444;2023-04-27T03:33:49;101971.34;;;9.29;49.40
48614;BME280;34408;51.426;5.444;2023-04-27T03:36:17;101970.50;;;9.28;49.94
48614;BME280;34408;51.426;5.444;2023-04-27T03:38:45;101973.38;;;9.27;49.74
48614;BME280;34408;51.426;5.444;2023-04-27T03:41:13;101971.53;;;9.27;49.34
48614;BME280;34408;51.426;5.444;2023-04-27T03:43:42;101985.97;;;9.26;49.31
48614;BME280;34408;51.426;5.444;2023-04-27T03:46:09;101979.13;;;9.24;49.38
48614;BME280;34408;51.426;5.444;2023-04-27T03:48:37;101979.13;;;9.24;49.37
48614;BME280;34408;51.426;5.444;2023-04-27T03:51:06;101975.78;;;9.22;49.78
48614;BME280;34408;51.426;5.444;2023-04-27T03:53:33;101974.78;;;9.23;49.91
48614;BME280;34408;51.426;5.444;2023-04-27T03:56:01;101976.81;;;9.21;49.68
48614;BME280;34408;51.426;5.444;2023-04-27T03:58:29;101976.97;;;9.19;49.19
48614;BME280;34408;51.426;5.444;2023-04-27T04:00:58;101978.84;;;9.19;49.43
48614;BME280;34408;51.426;5.444;2023-04-27T04:03:26;101982.53;;;9.18;49.62
48614;BME280;34408;51.426;5.444;2023-04-27T04:05:54;101983.75;;;9.15;49.88
48614;BME280;34408;51.426;5.444;2023-04-27T04:08:22;101978.56;;;9.13;49.29
48614;BME280;34408;51.426;5.444;2023-04-27T04:10:50;101974.41;;;9.11;49.35
48614;BME280;34408;51.426;5.444;2023-04-27T04:13:17;101970.03;;;9.10;49.43
48614;BME280;34408;51.426;5.444;2023-04-27T04:15:45;101968.47;;;9.01;49.24
48614;BME280;34408;51.426;5.444;2023-04-27T04:18:14;101980.31;;;9.06;49.83
48614;BME280;34408;51.426;5.444;2023-04-27T04:20:42;101975.31;;;9.03;50.27
48614;BME280;34408;51.426;5.444;2023-04-27T04:23:10;101977.81;;;9.05;50.45
48614;BME280;34408;51.426;5.444;2023-04-27T04:25:37;101988.53;;;9.05;49.39
48614;BME280;34408;51.426;5.444;2023-04-27T04:28:05;101989.75;;;9.02;49.73
48614;BME280;34408;51.426;5.444;2023-04-27T04:30:33;101986.41;;;9.00;50.20
48614;BME280;34408;51.426;5.444;2023-04-27T04:33:01;101987.25;;;9.01;49.88
48614;BME280;34408;51.426;5.444;2023-04-27T04:35:30;101982.97;;;8.92;50.08
48614;BME280;34408;51.426;5.444;2023-04-27T04:37:58;101999.16;;;8.98;49.63
48614;BME280;34408;51.426;5.444;2023-04-27T04:40:26;102003.69;;;8.98;49.76
48614;BME280;34408;51.426;5.444;2023-04-27T04:42:54;102005.53;;;8.97;49.95
48614;BME280;34408;51.426;5.444;2023-04-27T04:45:22;102001.28;;;8.88;50.49
48614;BME280;34408;51.426;5.444;2023-04-27T04:47:49;102019.97;;;8.96;49.95
48614;BME280;34408;51.426;5.444;2023-04-27T04:50:19;102018.47;;;8.94;50.59
48614;BME280;34408;51.426;5.444;2023-04-27T04:52:50;102014.13;;;8.93;49.60
48614;BME280;34408;51.426;5.444;2023-04-27T04:55:18;102010.81;;;8.91;50.13
48614;BME280;34408;51.426;5.444;2023-04-27T04:57:46;102016.16;;;8.91;49.66
48614;BME280;34408;51.426;5.444;2023-04-27T05:00:14;101998.50;;;8.81;50.11
48614;BME280;34408;51.426;5.444;2023-04-27T05:02:42;102020.88;;;8.89;50.63
48614;BME280;34408;51.426;5.444;2023-04-27T05:05:10;102018.19;;;8.89;49.79
48614;BME280;34408;51.426;5.444;2023-04-27T05:07:37;102017.34;;;8.88;50.28
48614;BME280;34408;51.426;5.444;2023-04-27T05:10:08;102017.53;;;8.87;50.30
48614;BME280;34408;51.426;5.444;2023-04-27T05:12:35;102014.84;;;8.87;50.70
48614;BME280;34408;51.426;5.444;2023-04-27T05:15:04;102018.25;;;8.80;50.30
48614;BME280;34408;51.426;5.444;2023-04-27T05:17:32;102026.59;;;8.86;50.45
48614;BME280;34408;51.426;5.444;2023-04-27T05:20:00;102024.09;;;8.84;50.01
48614;BME280;34408;51.426;5.444;2023-04-27T05:22:28;102032.16;;;8.84;50.01
48614;BME280;34408;51.426;5.444;2023-04-27T05:24:56;102022.63;;;8.81;50.70
48614;BME280;34408;51.426;5.444;2023-04-27T05:27:25;102025.75;;;8.85;50.54
48614;BME280;34408;51.426;5.444;2023-04-27T05:29:53;102028.25;;;8.87;50.98
48614;BME280;34408;51.426;5.444;2023-04-27T05:32:21;102033.81;;;8.85;50.65
48614;BME280;34408;51.426;5.444;2023-04-27T05:34:49;102038.81;;;8.88;50.68
48614;BME280;34408;51.426;5.444;2023-04-27T05:37:18;102034.09;;;8.90;50.50
48614;BME280;34408;51.426;5.444;2023-04-27T05:39:45;102033.25;;;8.90;49.88
48614;BME280;34408;51.426;5.444;2023-04-27T05:42:13;102039.63;;;8.89;50.72
48614;BME280;34408;51.426;5.444;2023-04-27T05:44:42;102040.47;;;8.89;50.45
48614;BME280;34408;51.426;5.444;2023-04-27T05:47:10;102032.63;;;8.88;50.51
48614;BME280;34408;51.426;5.444;2023-04-27T05:49:39;102039.81;;;8.87;50.53
48614;BME280;34408;51.426;5.444;2023-04-27T05:52:06;102047.03;;;8.87;50.44
48614;BME280;34408;51.426;5.444;2023-04-27T05:54:34;102040.84;;;8.86;50.16
48614;BME280;34408;51.426;5.444;2023-04-27T05:57:02;102051.56;;;8.86;50.72
48614;BME280;34408;51.426;5.444;2023-04-27T05:59:30;102053.22;;;8.87;50.88
48614;BME280;34408;51.426;5.444;2023-04-27T06:01:59;102040.66;;;8.88;50.78
48614;BME280;34408;51.426;5.444;2023-04-27T06:04:27;102042.97;;;8.91;50.75
48614;BME280;34408;51.426;5.444;2023-04-27T06:06:55;102044.28;;;8.95;51.02
48614;BME280;34408;51.426;5.444;2023-04-27T06:09:23;102044.75;;;8.98;50.64
48614;BME280;34408;51.426;5.444;2023-04-27T06:11:51;102047.06;;;9.01;50.64
48614;BME280;34408;51.426;5.444;2023-04-27T06:14:19;102051.03;;;9.05;50.15
48614;BME280;34408;51.426;5.444;2023-04-27T06:16:46;102043.66;;;9.07;50.11
48614;BME280;34408;51.426;5.444;2023-04-27T06:19:16;102040.44;;;9.12;50.60
48614;BME280;34408;51.426;5.444;2023-04-27T06:21:43;102033.03;;;9.14;50.65
48614;BME280;34408;51.426;5.444;2023-04-27T06:24:11;102022.84;;;9.09;50.15
48614;BME280;34408;51.426;5.444;2023-04-27T06:26:39;102028.13;;;9.18;50.98
48614;BME280;34408;51.426;5.444;2023-04-27T06:29:07;102027.75;;;9.21;50.19
48614;BME280;34408;51.426;5.444;2023-04-27T06:31:35;102028.59;;;9.21;50.98
48614;BME280;34408;51.426;5.444;2023-04-27T06:34:02;102033.59;;;9.24;51.13
48614;BME280;34408;51.426;5.444;2023-04-27T06:36:32;102037.56;;;9.28;50.91
48614;BME280;34408;51.426;5.444;2023-04-27T06:39:00;102042.75;;;9.30;50.79
48614;BME280;34408;51.426;5.444;2023-04-27T06:41:27;102048.78;;;9.32;51.03
48614;BME280;34408;51.426;5.444;2023-04-27T06:43:55;102046.56;;;9.35;51.14
48614;BME280;34408;51.426;5.444;2023-04-27T06:46:24;102039.34;;;9.36;50.88
48614;BME280;34408;51.426;5.444;2023-04-27T06:48:53;102043.88;;;9.35;50.46
48614;BME280;34408;51.426;5.444;2023-04-27T06:51:20;102040.16;;;9.36;50.53
48614;BME280;34408;51.426;5.444;2023-04-27T06:53:49;102040.44;;;9.41;50.54
48614;BME280;34408;51.426;5.444;2023-04-27T06:56:17;102035.72;;;9.43;50.51
48614;BME280;34408;51.426;5.444;2023-04-27T06:58:45;102043.41;;;9.46;51.00
48614;BME280;34408;51.426;5.444;2023-04-27T07:01:13;102047.56;;;9.49;50.80
48614;BME280;34408;51.426;5.444;2023-04-27T07:03:40;102043.03;;;9.50;50.68
48614;BME280;34408;51.426;5.444;2023-04-27T07:06:08;102039.34;;;9.51;51.02
48614;BME280;34408;51.426;5.444;2023-04-27T07:08:37;102040.16;;;9.51;51.11
48614;BME280;34408;51.426;5.444;2023-04-27T07:11:06;102033.78;;;9.52;50.84
48614;BME280;34408;51.426;5.444;2023-04-27T07:13:33;102031.94;;;9.53;51.07
48614;BME280;34408;51.426;5.444;2023-04-27T07:16:01;102027.22;;;9.55;51.33
48614;BME280;34408;51.426;5.444;2023-04-27T07:18:29;102023.50;;;9.56;51.29
48614;BME280;34408;51.426;5.444;2023-04-27T07:20:57;102026.84;;;9.58;51.32
48614;BME280;34408;51.426;5.444;2023-04-27T07:23:25;102034.72;;;9.59;51.27
48614;BME280;34408;51.426;5.444;2023-04-27T07:25:52;102034.53;;;9.61;50.97
48614;BME280;34408;51.426;5.444;2023-04-27T07:28:21;102036.19;;;9.62;51.35
48614;BME280;34408;51.426;5.444;2023-04-27T07:30:49;102038.03;;;9.61;51.59
48614;BME280;34408;51.426;5.444;2023-04-27T07:33:17;102033.50;;;9.62;51.54
48614;BME280;34408;51.426;5.444;2023-04-27T07:35:45;102037.03;;;9.62;51.43
48614;BME280;34408;51.426;5.444;2023-04-27T07:38:13;102043.03;;;9.64;51.93
48614;BME280;34408;51.426;5.444;2023-04-27T07:40:42;102040.53;;;9.63;51.84
48614;BME280;34408;51.426;5.444;2023-04-27T07:43:10;102032.66;;;9.61;51.37
48614;BME280;34408;51.426;5.444;2023-04-27T07:45:40;102037.84;;;9.63;51.45
48614;BME280;34408;51.426;5.444;2023-04-27T07:48:08;102027.13;;;9.63;52.26
48614;BME280;34408;51.426;5.444;2023-04-27T07:50:35;102037.66;;;9.64;51.42
48614;BME280;34408;51.426;5.444;2023-04-27T07:53:03;102029.44;;;9.66;52.00
48614;BME280;34408;51.426;5.444;2023-04-27T07:55:31;102035.06;;;9.71;51.89
48614;BME280;34408;51.426;5.444;2023-04-27T07:57:59;102022.66;;;9.70;52.08
48614;BME280;34408;51.426;5.444;2023-04-27T08:00:27;102029.06;;;9.69;52.02
48614;BME280;34408;51.426;5.444;2023-04-27T08:02:56;102025.53;;;9.68;52.25
48614;BME280;34408;51.426;5.444;2023-04-27T08:05:24;102019.97;;;9.70;51.98
48614;BME280;34408;51.426;5.444;2023-04-27T08:07:52;102026.34;;;9.84;51.94
48614;BME280;34408;51.426;5.444;2023-04-27T08:10:20;102024.72;;;10.04;51.26
48614;BME280;34408;51.426;5.444;2023-04-27T08:12:48;102026.91;;;10.30;51.10
48614;BME280;34408;51.426;5.444;2023-04-27T08:15:17;102021.94;;;10.55;50.36
48614;BME280;34408;51.426;5.444;2023-04-27T08:17:44;102028.81;;;10.85;49.39
48614;BME280;34408;51.426;5.444;2023-04-27T08:20:14;102030.25;;;11.09;49.08
48614;BME280;34408;51.426;5.444;2023-04-27T08:22:42;102031.66;;;11.33;48.59
48614;BME280;34408;51.426;5.444;2023-04-27T08:25:10;102020.16;;;11.52;48.15
48614;BME280;34408;51.426;5.444;2023-04-27T08:27:38;102023.56;;;11.67;47.92
48614;BME280;34408;51.426;5.444;2023-04-27T08:30:07;102015.06;;;11.70;47.75
48614;BME280;34408;51.426;5.444;2023-04-27T08:32:35;102003.44;;;11.63;47.71
48614;BME280;34408;51.426;5.444;2023-04-27T08:35:03;101997.75;;;11.45;48.24
48614;BME280;34408;51.426;5.444;2023-04-27T08:37:32;101992.72;;;11.29;48.88
48614;BME280;34408;51.426;5.444;2023-04-27T08:40:03;101989.69;;;11.11;49.26
48614;BME280;34408;51.426;5.444;2023-04-27T08:42:31;101991.03;;;10.93;49.51
48614;BME280;34408;51.426;5.444;2023-04-27T08:44:59;101990.94;;;10.80;50.19
48614;BME280;34408;51.426;5.444;2023-04-27T08:47:27;101988.19;;;10.73;50.43
48614;BME280;34408;51.426;5.444;2023-04-27T08:50:10;102000.94;;;10.65;50.61
48614;BME280;34408;51.426;5.444;2023-04-27T08:52:39;101990.97;;;10.59;51.47
48614;BME280;34408;51.426;5.444;2023-04-27T08:55:07;101995.69;;;10.57;51.11
48614;BME280;34408;51.426;5.444;2023-04-27T08:57:35;101997.38;;;10.58;51.24
48614;BME280;34408;51.426;5.444;2023-04-27T09:00:05;101993.22;;;10.55;51.87
48614;BME280;34408;51.426;5.444;2023-04-27T09:02:48;101996.72;;;10.56;51.80
48614;BME280;34408;51.426;5.444;2023-04-27T09:05:16;101996.72;;;10.56;51.79
48614;BME280;34408;51.426;5.444;2023-04-27T09:08:00;101992.19;;;10.56;51.72
48614;BME280;34408;51.426;5.444;2023-04-27T09:10:42;101986.81;;;10.56;51.48
48614;BME280;34408;51.426;5.444;2023-04-27T09:13:10;101988.47;;;10.57;51.47
48614;BME280;34408;51.426;5.444;2023-04-27T09:15:42;102001.53;;;10.60;51.22
48614;BME280;34408;51.426;5.444;2023-04-27T09:18:15;101981.03;;;10.59;51.30
48614;BME280;34408;51.426;5.444;2023-04-27T09:20:44;101983.91;;;10.58;51.32
48614;BME280;34408;51.426;5.444;2023-04-27T09:23:25;101984.56;;;10.60;51.17
48614;BME280;34408;51.426;5.444;2023-04-27T09:25:54;101983.16;;;10.64;51.36
48614;BME280;34408;51.426;5.444;2023-04-27T09:28:24;101985.63;;;10.65;51.54
48614;BME280;34408;51.426;5.444;2023-04-27T09:30:53;101986.28;;;10.67;51.64
48614;BME280;34408;51.426;5.444;2023-04-27T09:33:22;101982.38;;;10.70;51.53
48614;BME280;34408;51.426;5.444;2023-04-27T09:35:50;101975.13;;;10.70;51.72
48614;BME280;34408;51.426;5.444;2023-04-27T09:38:19;101980.97;;;10.74;51.87
48614;BME280;34408;51.426;5.444;2023-04-27T09:40:49;101974.53;;;11.03;53.71
48614;BME280;34408;51.426;5.444;2023-04-27T09:43:17;101980.91;;;10.95;52.16
48614;BME280;34408;51.426;5.444;2023-04-27T09:45:45;101969.31;;;10.95;51.91
48614;BME280;34408;51.426;5.444;2023-04-27T09:48:13;101970.38;;;11.00;52.66
48614;BME280;34408;51.426;5.444;2023-04-27T09:50:44;101965.41;;;10.97;52.12
48614;BME280;34408;51.426;5.444;2023-04-27T09:53:14;101966.44;;;10.96;51.94
48614;BME280;34408;51.426;5.444;2023-04-27T09:55:50;101967.06;;;10.98;51.91
48614;BME280;34408;51.426;5.444;2023-04-27T10:01:20;101966.47;;;11.03;51.47
48614;BME280;34408;51.426;5.444;2023-04-27T10:04:01;101959.88;;;11.05;51.81
48614;BME280;34408;51.426;5.444;2023-04-27T10:06:56;101959.47;;;11.08;51.70
48614;BME280;34408;51.426;5.444;2023-04-27T10:09:25;101961.44;;;11.28;53.00
48614;BME280;34408;51.426;5.444;2023-04-27T10:12:13;101958.50;;;11.23;51.46
48614;BME280;34408;51.426;5.444;2023-04-27T10:14:49;101956.84;;;11.22;50.77
48614;BME280;34408;51.426;5.444;2023-04-27T10:17:17;101950.88;;;11.26;50.54
48614;BME280;34408;51.426;5.444;2023-04-27T10:19:53;101954.63;;;11.32;50.90
48614;BME280;34408;51.426;5.444;2023-04-27T10:22:36;101965.81;;;11.35;50.52
48614;BME280;34408;51.426;5.444;2023-04-27T10:25:13;101963.78;;;11.37;50.54
48614;BME280;34408;51.426;5.444;2023-04-27T10:27:47;101962.97;;;11.44;51.08
48614;BME280;34408;51.426;5.444;2023-04-27T10:30:17;101961.97;;;11.51;52.34
48614;BME280;34408;51.426;5.444;2023-04-27T10:32:49;101969.66;;;11.54;51.85
48614;BME280;34408;51.426;5.444;2023-04-27T10:35:18;101969.66;;;11.54;50.42
48614;BME280;34408;51.426;5.444;2023-04-27T10:37:47;101965.28;;;11.53;49.99
48614;BME280;34408;51.426;5.444;2023-04-27T10:40:15;101947.44;;;11.46;49.56
48614;BME280;34408;51.426;5.444;2023-04-27T10:42:46;101962.59;;;11.53;49.09
48614;BME280;34408;51.426;5.444;2023-04-27T10:45:25;101939.19;;;11.54;48.00
48614;BME280;34408;51.426;5.444;2023-04-27T10:47:58;101934.63;;;11.54;48.56
48614;BME280;34408;51.426;5.444;2023-04-27T10:50:27;101935.06;;;11.58;48.14
48614;BME280;34408;51.426;5.444;2023-04-27T10:52:58;101940.06;;;11.61;48.19
48614;BME280;34408;51.426;5.444;2023-04-27T10:55:28;101929.06;;;11.62;48.54
48614;BME280;34408;51.426;5.444;2023-04-27T10:57:57;101932.00;;;11.67;48.61
48614;BME280;34408;51.426;5.444;2023-04-27T11:00:28;101916.47;;;11.69;48.79
48614;BME280;34408;51.426;5.444;2023-04-27T11:02:57;101926.25;;;11.77;50.05
48614;BME280;34408;51.426;5.444;2023-04-27T11:05:36;101917.78;;;11.87;51.44
48614;BME280;34408;51.426;5.444;2023-04-27T11:08:05;101913.25;;;12.00;52.35
48614;BME280;34408;51.426;5.444;2023-04-27T11:10:34;101912.22;;;12.01;51.22
48614;BME280;34408;51.426;5.444;2023-04-27T11:13:08;101911.38;;;12.01;49.07
48614;BME280;34408;51.426;5.444;2023-04-27T11:15:44;101900.81;;;12.06;49.39
48614;BME280;34408;51.426;5.444;2023-04-27T11:18:12;101897.50;;;12.11;49.71
48614;BME280;34408;51.426;5.444;2023-04-27T11:20:42;101900.00;;;12.12;48.87
48614;BME280;34408;51.426;5.444;2023-04-27T11:23:10;101891.69;;;12.14;48.93
48614;BME280;34408;51.426;5.444;2023-04-27T11:25:38;101904.13;;;12.15;48.06
48614;BME280;34408;51.426;5.444;2023-04-27T11:28:16;101903.53;;;12.13;47.13
48614;BME280;34408;51.426;5.444;2023-04-27T11:30:44;101891.91;;;12.12;47.63
48614;BME280;34408;51.426;5.444;2023-04-27T11:33:13;101894.38;;;12.14;47.93
48614;BME280;34408;51.426;5.444;2023-04-27T11:35:41;101903.91;;;12.16;48.14
48614;BME280;34408;51.426;5.444;2023-04-27T11:38:14;101895.63;;;12.18;47.74
48614;BME280;34408;51.426;5.444;2023-04-27T11:40:43;101882.78;;;12.13;47.45
48614;BME280;34408;51.426;5.444;2023-04-27T11:43:12;101891.47;;;12.22;47.79
48614;BME280;34408;51.426;5.444;2023-04-27T11:45:42;101887.94;;;12.21;46.91
48614;BME280;34408;51.426;5.444;2023-04-27T11:48:14;101888.56;;;12.23;45.43
48614;BME280;34408;51.426;5.444;2023-04-27T11:50:45;101878.00;;;12.22;44.70
48614;BME280;34408;51.426;5.444;2023-04-27T11:53:13;101884.41;;;12.21;44.90
48614;BME280;34408;51.426;5.444;2023-04-27T11:55:51;101891.47;;;12.22;44.13
48614;BME280;34408;51.426;5.444;2023-04-27T11:58:19;101888.97;;;12.20;44.44
48614;BME280;34408;51.426;5.444;2023-04-27T12:00:49;101892.94;;;12.24;45.30
48614;BME280;34408;51.426;5.444;2023-04-27T12:03:16;101890.03;;;12.26;41.77
48614;BME280;34408;51.426;5.444;2023-04-27T12:05:48;101877.16;;;12.28;41.79
48614;BME280;34408;51.426;5.444;2023-04-27T12:08:16;101878.81;;;12.29;43.13
48614;BME280;34408;51.426;5.444;2023-04-27T12:10:45;101886.91;;;12.35;45.84
48614;BME280;34408;51.426;5.444;2023-04-27T12:13:13;101876.34;;;12.41;46.17
48614;BME280;34408;51.426;5.444;2023-04-27T12:15:41;101858.09;;;12.36;45.62
48614;BME280;34408;51.426;5.444;2023-04-27T12:18:10;101861.59;;;12.50;46.31
48614;BME280;34408;51.426;5.444;2023-04-27T12:20:38;101867.19;;;12.55;45.51
48614;BME280;34408;51.426;5.444;2023-04-27T12:23:05;101870.91;;;12.60;46.11
48614;BME280;34408;51.426;5.444;2023-04-27T12:25:33;101863.84;;;12.66;47.83
48614;BME280;34408;51.426;5.444;2023-04-27T12:28:01;101867.38;;;12.73;48.59
48614;BME280;34408;51.426;5.444;2023-04-27T12:30:29;101863.81;;;12.79;49.62
48614;BME280;34408;51.426;5.444;2023-04-27T12:32:57;101855.50;;;12.81;47.49
48614;BME280;34408;51.426;5.444;2023-04-27T12:35:27;101855.50;;;12.81;46.06
48614;BME280;34408;51.426;5.444;2023-04-27T12:37:57;101851.56;;;12.83;46.49
48614;BME280;34408;51.426;5.444;2023-04-27T12:40:25;101843.25;;;12.85;47.26
48614;BME280;34408;51.426;5.444;2023-04-27T12:42:53;101850.50;;;12.91;47.92
48614;BME280;34408;51.426;5.444;2023-04-27T12:45:20;101852.56;;;12.95;47.07
48614;BME280;34408;51.426;5.444;2023-04-27T12:47:48;101854.00;;;12.98;47.38
48614;BME280;34408;51.426;5.444;2023-04-27T12:50:31;101848.63;;;12.98;45.88
48614;BME280;34408;51.426;5.444;2023-04-27T12:52:59;101856.28;;;13.01;45.23
48614;BME280;34408;51.426;5.444;2023-04-27T12:55:26;101845.06;;;13.04;46.10
48614;BME280;34408;51.426;5.444;2023-04-27T12:58:00;101840.91;;;13.08;47.07
48614;BME280;34408;51.426;5.444;2023-04-27T13:00:28;101847.31;;;13.14;47.76
48614;BME280;34408;51.426;5.444;2023-04-27T13:02:56;101832.75;;;13.15;46.68
48614;BME280;34408;51.426;5.444;2023-04-27T13:05:24;101833.19;;;13.18;46.85
48614;BME280;34408;51.426;5.444;2023-04-27T13:07:56;101837.75;;;13.24;46.90